createdAt,value
2018-07-13T00:02:17.159Z,101166.30
2018-07-13T00:04:46.973Z,101166.30
2018-07-13T00:07:16.934Z,101168.02
2018-07-13T00:09:46.774Z,101161.89
2018-07-13T00:12:16.642Z,101165.98
2018-07-13T00:15:19.042Z,101169.62
2018-07-13T00:17:49.031Z,101169.84
2018-07-13T00:20:19.174Z,101170.06
2018-07-13T00:22:48.903Z,101177.42
2018-07-13T00:25:18.718Z,101175.62
2018-07-13T00:27:48.387Z,101174.06
2018-07-13T00:30:18.222Z,101179.30
2018-07-13T00:32:48.266Z,101181.23
2018-07-13T00:35:18.003Z,101179.91
2018-07-13T00:37:47.911Z,101182.67
2018-07-13T00:40:17.695Z,101184.48
2018-07-13T00:42:47.498Z,101184.27
2018-07-13T00:45:17.236Z,101182.11
2018-07-13T00:47:46.906Z,101190.38
2018-07-13T00:50:17.267Z,101186.20
2018-07-13T00:52:47.319Z,101188.48
2018-07-13T00:55:17.144Z,101190.72
2018-07-13T00:57:47.002Z,101191.69
2018-07-13T01:00:17.223Z,101186.03
2018-07-13T01:02:46.854Z,101193.27
2018-07-13T01:05:16.723Z,101189.65
2018-07-13T01:07:46.691Z,101195.75
2018-07-13T01:10:16.405Z,101207.10
2018-07-13T01:12:46.238Z,101201.45
2018-07-13T01:15:16.090Z,101199.54
2018-07-13T01:17:45.970Z,101195.20
2018-07-13T01:20:15.665Z,101194.13
2018-07-13T01:22:45.360Z,101195.25
2018-07-13T01:25:15.246Z,101196.02
2018-07-13T01:27:45.442Z,101197.11
2018-07-13T01:30:15.161Z,101192.53
2018-07-13T01:32:44.792Z,101193.37
2018-07-13T01:35:14.882Z,101195.62
2018-07-13T01:37:44.810Z,101191.16
2018-07-13T01:40:14.514Z,101192.52
2018-07-13T01:42:44.330Z,101197.45
2018-07-13T01:45:14.039Z,101199.52
2018-07-13T01:47:44.899Z,101201.79
2018-07-13T01:50:14.858Z,101204.02
2018-07-13T01:52:44.802Z,101206.52
2018-07-13T01:55:14.660Z,101206.56
2018-07-13T01:57:44.606Z,101206.59
2018-07-13T02:00:14.314Z,101202.87
2018-07-13T02:02:43.994Z,101207.24
2018-07-13T02:05:13.658Z,101204.54
2018-07-13T02:07:43.479Z,101209.09
2018-07-13T02:10:13.210Z,101205.39
2018-07-13T02:12:43.150Z,101202.09
2018-07-13T02:15:12.827Z,101204.02
2018-07-13T02:17:42.565Z,101213.13
2018-07-13T02:20:12.486Z,101207.51
2018-07-13T02:22:42.234Z,101210.87
2018-07-13T02:25:11.937Z,101208.58
2018-07-13T02:27:42.170Z,101204.45
2018-07-13T02:30:12.018Z,101207.78
2018-07-13T02:32:41.998Z,101205.81
2018-07-13T02:35:11.715Z,101209.95
2018-07-13T02:37:41.407Z,101214.37
2018-07-13T02:40:11.273Z,101214.56
2018-07-13T02:42:41.154Z,101213.80
2018-07-13T02:45:11.052Z,101218.80
2018-07-13T02:47:40.892Z,101213.63
2018-07-13T02:50:10.606Z,101218.97
2018-07-13T02:52:40.320Z,101216.04
2018-07-13T02:55:10.016Z,101220.77
2018-07-13T02:57:39.942Z,101223.59
2018-07-13T03:00:09.862Z,101223.87
2018-07-13T03:02:39.816Z,101223.48
2018-07-13T03:05:09.739Z,101226.70
2018-07-13T03:07:39.676Z,101226.03
2018-07-13T03:10:09.398Z,101224.52
2018-07-13T03:12:39.275Z,101230.35
2018-07-13T03:15:09.063Z,101223.58
2018-07-13T03:17:38.778Z,101229.23
2018-07-13T03:20:08.650Z,101228.84
2018-07-13T03:22:38.424Z,101232.44
2018-07-13T03:25:08.466Z,101233.47
2018-07-13T03:27:38.225Z,101232.25
2018-07-13T03:30:07.906Z,101233.09
2018-07-13T03:32:37.834Z,101234.63
2018-07-13T03:35:07.680Z,101233.87
2018-07-13T03:37:37.382Z,101234.45
2018-07-13T03:40:07.300Z,101239.22
2018-07-13T03:42:37.142Z,101237.34
2018-07-13T03:45:06.982Z,101240.09
2018-07-13T03:47:36.698Z,101238.61
2018-07-13T03:50:06.818Z,101245.51
2018-07-13T03:52:36.514Z,101246.45
2018-07-13T03:55:06.646Z,101239.76
2018-07-13T03:57:36.583Z,101242.95
2018-07-13T04:00:06.471Z,101248.17
2018-07-13T04:02:36.434Z,101246.91
2018-07-13T04:05:06.404Z,101249.21
2018-07-13T04:07:36.095Z,101251.45
2018-07-13T04:10:06.141Z,101252.04
2018-07-13T04:12:35.834Z,101247.95
2018-07-13T04:15:06.057Z,101252.84
2018-07-13T04:17:35.979Z,101253.50
2018-07-13T04:20:05.810Z,101249.16
2018-07-13T04:22:35.774Z,101252.93
2018-07-13T04:25:05.716Z,101247.66
2018-07-13T04:27:36.967Z,101252.28
2018-07-13T04:30:07.312Z,101250.30
2018-07-13T04:32:37.201Z,101248.98
2018-07-13T04:35:06.965Z,101248.31
2018-07-13T04:37:36.719Z,101250.41
2018-07-13T04:40:06.475Z,101246.99
2018-07-13T04:42:36.424Z,101250.67
2018-07-13T04:45:06.356Z,101255.59
2018-07-13T04:47:36.091Z,101258.48
2018-07-13T04:50:05.936Z,101258.86
2018-07-13T04:52:35.842Z,101261.57
2018-07-13T04:55:05.766Z,101255.86
2018-07-13T04:57:35.671Z,101254.81
2018-07-13T05:00:06.012Z,101260.46
2018-07-13T05:02:35.900Z,101259.88
2018-07-13T05:05:06.282Z,101254.14
2018-07-13T05:07:36.196Z,101261.00
2018-07-13T05:10:06.357Z,101257.90
2018-07-13T05:12:36.172Z,101261.47
2018-07-13T05:15:07.088Z,101257.91
2018-07-13T05:17:36.730Z,101255.58
2018-07-13T05:20:06.753Z,101250.85
2018-07-13T05:22:37.199Z,101259.78
2018-07-13T05:25:08.109Z,101261.02
2018-07-13T05:27:37.808Z,101265.99
2018-07-13T05:30:08.177Z,101270.98
2018-07-13T05:32:39.018Z,101266.95
2018-07-13T05:35:08.826Z,101266.74
2018-07-13T05:37:38.562Z,101265.41
2018-07-13T05:40:08.329Z,101265.81
2018-07-13T05:42:38.028Z,101263.47
2018-07-13T05:45:07.766Z,101265.81
2018-07-13T05:47:37.677Z,101262.56
2018-07-13T05:50:07.454Z,101262.50
2018-07-13T05:52:38.495Z,101264.18
2018-07-13T05:55:08.662Z,101269.30
2018-07-13T05:57:39.128Z,101266.67
2018-07-13T06:00:08.931Z,101272.28
2018-07-13T06:02:38.651Z,101280.27
2018-07-13T06:05:08.421Z,101278.50
2018-07-13T06:07:38.178Z,101277.48
2018-07-13T06:10:07.906Z,101270.23
2018-07-13T06:12:37.634Z,101274.73
2018-07-13T06:15:07.514Z,101272.58
2018-07-13T06:17:37.218Z,101279.25
2018-07-13T06:20:09.554Z,101280.39
2018-07-13T06:22:39.263Z,101286.41
2018-07-13T06:25:09.750Z,101280.57
2018-07-13T06:27:39.749Z,101279.53
2018-07-13T06:30:09.580Z,101273.61
2018-07-13T06:32:39.204Z,101275.87
2018-07-13T06:35:08.958Z,101271.34
2018-07-13T06:37:39.143Z,101277.28
2018-07-13T06:40:08.890Z,101274.19
2018-07-13T06:42:38.846Z,101273.16
2018-07-13T06:45:08.608Z,101279.63
2018-07-13T06:47:38.307Z,101272.41
2018-07-13T06:50:08.171Z,101277.27
2018-07-13T06:52:37.861Z,101278.34
2018-07-13T06:55:07.567Z,101279.84
2018-07-13T06:57:53.922Z,101278.14
2018-07-13T07:01:00.409Z,101283.04
2018-07-13T07:03:31.843Z,101293.95
2018-07-13T07:06:10.913Z,101287.74
2018-07-13T07:08:51.228Z,101282.58
2018-07-13T07:11:21.002Z,101287.92
2018-07-13T07:13:50.978Z,101293.36
2018-07-13T07:16:20.784Z,101289.48
2018-07-13T07:18:50.445Z,101291.28
2018-07-13T07:21:20.100Z,101290.17
2018-07-13T07:23:49.766Z,101289.38
2018-07-13T07:26:19.472Z,101286.42
2018-07-13T07:28:49.120Z,101288.61
2018-07-13T07:31:18.943Z,101286.71
2018-07-13T07:33:48.598Z,101291.58
2018-07-13T07:36:18.243Z,101287.27
2018-07-13T07:38:47.894Z,101286.50
2018-07-13T07:41:17.654Z,101286.12
2018-07-13T07:43:47.374Z,101285.36
2018-07-13T07:46:17.126Z,101283.73
2018-07-13T07:48:46.757Z,101278.91
2018-07-13T07:51:16.390Z,101283.66
2018-07-13T07:53:46.022Z,101277.98
2018-07-13T07:56:15.649Z,101282.98
2018-07-13T07:58:45.354Z,101285.47
2018-07-13T08:01:15.018Z,101284.90
2018-07-13T08:03:44.730Z,101280.27
2018-07-13T08:06:14.390Z,101284.64
2018-07-13T08:08:44.059Z,101281.11
2018-07-13T08:11:13.715Z,101283.45
2018-07-13T08:13:43.392Z,101285.36
2018-07-13T08:16:13.041Z,101284.34
2018-07-13T08:18:42.732Z,101282.72
2018-07-13T08:21:12.462Z,101288.76
2018-07-13T08:23:43.066Z,101285.89
2018-07-13T08:26:13.691Z,101287.06
2018-07-13T08:28:45.492Z,101287.83
2018-07-13T08:31:15.242Z,101284.70
2018-07-13T08:33:44.858Z,101287.02
2018-07-13T08:36:14.513Z,101292.09
2018-07-13T08:38:44.154Z,101288.66
2018-07-13T08:41:13.874Z,101292.30
2018-07-13T08:43:43.642Z,101295.34
2018-07-13T08:46:13.292Z,101287.66
2018-07-13T08:48:43.000Z,101286.72
2018-07-13T08:51:12.796Z,101292.02
2018-07-13T08:53:42.554Z,101280.42
2018-07-13T08:56:12.327Z,101277.89
2018-07-13T08:58:41.982Z,101285.88
2018-07-13T09:01:11.729Z,101279.06
2018-07-13T09:03:41.433Z,101279.66
2018-07-13T09:06:11.125Z,101273.16
2018-07-13T09:08:40.827Z,101272.08
2018-07-13T09:11:10.533Z,101280.42
2018-07-13T09:13:40.290Z,101280.11
2018-07-13T09:16:10.263Z,101277.52
2018-07-13T09:18:40.176Z,101272.88
2018-07-13T09:21:09.849Z,101274.29
2018-07-13T09:23:39.553Z,101268.67
2018-07-13T09:26:09.298Z,101278.34
2018-07-13T09:28:39.222Z,101276.86
2018-07-13T09:31:08.965Z,101276.65
2018-07-13T09:33:38.566Z,101274.17
2018-07-13T09:36:08.383Z,101273.45
2018-07-13T09:38:38.048Z,101276.45
2018-07-13T09:41:07.938Z,101276.46
2018-07-13T09:43:37.606Z,101272.00
2018-07-13T09:46:07.381Z,101271.03
2018-07-13T09:48:36.958Z,101272.72
2018-07-13T09:51:06.743Z,101273.19
2018-07-13T09:53:36.802Z,101274.25
2018-07-13T09:56:06.582Z,101269.69
2018-07-13T09:58:37.376Z,101271.46
2018-07-13T10:01:12.162Z,101270.42
2018-07-13T10:03:41.892Z,101266.69
2018-07-13T10:06:11.590Z,101276.77
2018-07-13T10:08:41.314Z,101276.59
2018-07-13T10:11:11.067Z,101272.17
2018-07-13T10:13:40.983Z,101270.11
2018-07-13T10:16:10.661Z,101270.45
2018-07-13T10:18:40.370Z,101269.23
2018-07-13T10:21:10.533Z,101270.95
2018-07-13T10:23:41.481Z,101272.98
2018-07-13T10:26:18.982Z,101264.05
2018-07-13T10:28:48.927Z,101254.95
2018-07-13T10:31:18.882Z,101260.68
2018-07-13T10:33:48.627Z,101258.88
2018-07-13T10:36:19.999Z,101261.98
2018-07-13T10:38:49.613Z,101260.61
2018-07-13T10:41:19.468Z,101257.23
2018-07-13T10:43:49.121Z,101257.95
2018-07-13T10:46:18.886Z,101260.70
2018-07-13T10:48:48.552Z,101258.69
2018-07-13T10:51:18.197Z,101261.78
2018-07-13T10:53:47.829Z,101261.38
2018-07-13T10:56:17.427Z,101254.16
2018-07-13T10:58:47.071Z,101256.02
2018-07-13T11:01:16.719Z,101247.45
2018-07-13T11:03:46.399Z,101247.50
2018-07-13T11:06:17.306Z,101252.28
2018-07-13T11:08:46.949Z,101248.12
2018-07-13T11:11:16.611Z,101249.33
2018-07-13T11:13:46.291Z,101251.03
2018-07-13T11:16:15.881Z,101246.01
2018-07-13T11:18:45.511Z,101236.08
2018-07-13T11:21:15.150Z,101251.14
2018-07-13T11:23:44.982Z,101240.42
2018-07-13T11:26:14.606Z,101245.67
2018-07-13T11:28:44.222Z,101235.08
2018-07-13T11:31:13.882Z,101235.62
2018-07-13T11:33:43.565Z,101233.27
2018-07-13T11:36:13.197Z,101228.36
2018-07-13T11:38:42.840Z,101227.25
2018-07-13T11:41:12.453Z,101237.53
2018-07-13T11:43:42.105Z,101235.36
2018-07-13T11:46:11.758Z,101232.02
2018-07-13T11:48:41.422Z,101229.95
2018-07-13T11:51:11.091Z,101219.80
2018-07-13T11:53:40.921Z,101224.08
2018-07-13T11:56:10.546Z,101222.77
2018-07-13T11:58:40.170Z,101226.06
2018-07-13T12:01:09.797Z,101224.10
2018-07-13T12:03:39.450Z,101218.48
2018-07-13T12:06:09.109Z,101217.77
2018-07-13T12:08:38.862Z,101215.27
2018-07-13T12:11:08.587Z,101210.69
2018-07-13T12:13:38.214Z,101207.16
2018-07-13T12:16:07.917Z,101203.48
2018-07-13T12:18:37.529Z,101202.20
2018-07-13T12:21:07.267Z,101202.95
2018-07-13T12:23:37.080Z,101199.87
2018-07-13T12:26:10.147Z,101200.66
2018-07-13T12:28:39.859Z,101197.83
2018-07-13T12:31:09.542Z,101190.64
2018-07-13T12:33:39.131Z,101190.59
2018-07-13T12:36:08.876Z,101185.93
2018-07-13T12:38:38.493Z,101187.66
2018-07-13T12:41:08.173Z,101187.30
2018-07-13T12:43:37.798Z,101184.36
2018-07-13T12:46:07.505Z,101188.00
2018-07-13T12:48:37.158Z,101182.91
2018-07-13T12:51:07.434Z,101180.61
2018-07-13T12:53:37.052Z,101179.73
2018-07-13T12:56:06.677Z,101170.79
2018-07-13T12:58:36.309Z,101173.30
2018-07-13T13:01:05.954Z,101165.97
2018-07-13T13:03:35.697Z,101176.31
2018-07-13T13:06:05.288Z,101176.66
2018-07-13T13:08:34.886Z,101178.02
2018-07-13T13:11:04.581Z,101179.94
2018-07-13T13:13:34.214Z,101177.75
2018-07-13T13:16:03.854Z,101169.95
2018-07-13T13:18:33.722Z,101170.70
2018-07-13T13:21:03.342Z,101165.95
2018-07-13T13:23:33.016Z,101165.48
2018-07-13T13:26:02.636Z,101167.62
2018-07-13T13:28:32.290Z,101163.00
2018-07-13T13:31:02.715Z,101164.78
2018-07-13T13:33:32.370Z,101161.77
2018-07-13T13:36:01.991Z,101163.00
2018-07-13T13:38:31.606Z,101166.51
2018-07-13T13:41:01.233Z,101160.66
2018-07-13T13:43:30.904Z,101155.47
2018-07-13T13:46:00.493Z,101166.69
2018-07-13T13:48:30.154Z,101158.44
2018-07-13T13:50:59.998Z,101157.84
2018-07-13T13:53:29.762Z,101160.61
2018-07-13T13:55:59.453Z,101157.97
2018-07-13T13:58:29.074Z,101159.64
2018-07-13T14:00:58.705Z,101156.80
2018-07-13T14:03:28.334Z,101148.31
2018-07-13T14:05:57.969Z,101149.67
2018-07-13T14:08:27.603Z,101148.89
2018-07-13T14:10:57.249Z,101148.84
2018-07-13T14:13:26.886Z,101146.36
2018-07-13T14:15:56.521Z,101145.37
2018-07-13T14:18:26.146Z,101139.48
2018-07-13T14:20:55.773Z,101135.32
2018-07-13T14:23:25.441Z,101138.28
2018-07-13T14:25:55.098Z,101138.75
2018-07-13T14:28:24.771Z,101130.95
2018-07-13T14:30:54.393Z,101133.86
2018-07-13T14:33:24.045Z,101131.02
2018-07-13T14:35:53.669Z,101130.03
2018-07-13T14:38:23.303Z,101130.62
2018-07-13T14:40:53.119Z,101131.48
2018-07-13T14:43:22.797Z,101133.66
2018-07-13T14:45:52.477Z,101118.98
2018-07-13T14:48:22.138Z,101120.92
2018-07-13T14:50:51.811Z,101118.91
2018-07-13T14:53:21.498Z,101116.91
2018-07-13T14:55:51.149Z,101114.41
2018-07-13T14:58:20.795Z,101121.92
2018-07-13T15:00:50.398Z,101113.50
2018-07-13T15:03:20.026Z,101115.22
2018-07-13T15:05:49.645Z,101114.19
2018-07-13T15:08:19.282Z,101112.06
2018-07-13T15:10:48.910Z,101115.58
2018-07-13T15:13:18.527Z,101108.55
2018-07-13T15:15:48.181Z,101117.59
2018-07-13T15:18:17.837Z,101115.25
2018-07-13T15:20:47.498Z,101117.65
2018-07-13T15:23:17.114Z,101113.77
2018-07-13T15:25:46.763Z,101115.30
2018-07-13T15:28:16.441Z,101107.97
2018-07-13T15:30:46.046Z,101103.30
2018-07-13T15:33:15.690Z,101100.85
2018-07-13T15:35:45.329Z,101098.51
2018-07-13T15:38:14.926Z,101094.72
2018-07-13T15:40:45.027Z,101096.77
2018-07-13T15:43:14.648Z,101093.80
2018-07-13T15:45:44.289Z,101096.84
2018-07-13T15:48:13.890Z,101095.84
2018-07-13T15:50:43.556Z,101088.09
2018-07-13T15:53:13.167Z,101093.66
2018-07-13T15:55:48.006Z,101091.80
2018-07-13T15:58:17.649Z,101090.95
2018-07-13T16:00:47.314Z,101089.12
2018-07-13T16:03:16.937Z,101086.62
2018-07-13T16:05:46.668Z,101086.77
2018-07-13T16:08:16.262Z,101086.08
2018-07-13T16:10:45.939Z,101086.45
2018-07-13T16:13:15.610Z,101086.62
2018-07-13T16:15:45.249Z,101080.91
2018-07-13T16:18:14.942Z,101085.60
2018-07-13T16:20:45.691Z,101075.35
2018-07-13T16:23:15.364Z,101075.17
2018-07-13T16:25:45.031Z,101080.45
2018-07-13T16:28:14.658Z,101081.73
2018-07-13T16:30:44.339Z,101082.27
2018-07-13T16:33:13.962Z,101076.04
2018-07-13T16:35:43.658Z,101079.59
2018-07-13T16:38:13.374Z,101074.58
2018-07-13T16:40:43.010Z,101075.06
2018-07-13T16:43:12.619Z,101069.35
2018-07-13T16:45:42.313Z,101067.38
2018-07-13T16:48:11.949Z,101066.34
2018-07-13T16:50:41.608Z,101067.36
2018-07-13T16:53:11.205Z,101057.95
2018-07-13T16:55:40.897Z,101066.56
2018-07-13T16:58:10.562Z,101066.72
2018-07-13T17:00:40.218Z,101060.02
2018-07-13T17:03:09.909Z,101060.34
2018-07-13T17:05:39.502Z,101065.38
2018-07-13T17:08:09.114Z,101056.11
2018-07-13T17:10:38.854Z,101060.49
2018-07-13T17:13:08.507Z,101061.09
2018-07-13T17:15:38.128Z,101060.87
2018-07-13T17:18:07.738Z,101053.40
2018-07-13T17:20:37.895Z,101056.02
2018-07-13T17:23:07.546Z,101054.48
2018-07-13T17:25:37.131Z,101057.37
2018-07-13T17:28:06.829Z,101057.03
2018-07-13T17:30:36.441Z,101060.34
2018-07-13T17:33:06.102Z,101057.26
2018-07-13T17:35:35.728Z,101056.27
2018-07-13T17:38:05.460Z,101052.25
2018-07-13T17:40:35.082Z,101060.30
2018-07-13T17:43:04.786Z,101052.49
2018-07-13T17:45:34.394Z,101058.56
2018-07-13T17:48:04.097Z,101056.97
2018-07-13T17:50:33.740Z,101053.56
2018-07-13T17:53:03.427Z,101047.78
2018-07-13T17:55:33.074Z,101051.73
2018-07-13T17:58:02.774Z,101052.83
2018-07-13T18:00:32.508Z,101052.88
2018-07-13T18:03:02.233Z,101052.88
2018-07-13T18:05:31.890Z,101051.58
2018-07-13T18:08:01.900Z,101053.09
2018-07-13T18:10:31.547Z,101050.63
2018-07-13T18:13:01.338Z,101047.55
2018-07-13T18:15:30.810Z,101045.58
2018-07-13T18:18:00.457Z,101045.84
2018-07-13T18:20:30.130Z,101042.11
2018-07-13T18:22:59.794Z,101048.27
2018-07-13T18:25:29.353Z,101049.27
2018-07-13T18:27:59.048Z,101045.09
2018-07-13T18:30:28.688Z,101043.20
2018-07-13T18:32:58.335Z,101041.61
2018-07-13T18:35:28.007Z,101046.12
2018-07-13T18:37:57.673Z,101049.55
2018-07-13T18:40:27.369Z,101049.21
2018-07-13T18:42:57.003Z,101048.75
2018-07-13T18:45:26.637Z,101047.53
2018-07-13T18:47:58.714Z,101038.88
2018-07-13T18:50:28.347Z,101048.33
2018-07-13T18:52:58.022Z,101051.36
2018-07-13T18:55:27.693Z,101052.59
2018-07-13T18:57:57.346Z,101051.91
2018-07-13T19:00:27.038Z,101057.27
2018-07-13T19:02:56.679Z,101054.45
2018-07-13T19:05:26.348Z,101050.17
2018-07-13T19:07:55.990Z,101055.18
2018-07-13T19:10:26.611Z,101053.69
2018-07-13T19:12:56.246Z,101052.92
2018-07-13T19:15:25.846Z,101061.92
2018-07-13T19:17:55.718Z,101059.80
2018-07-13T19:20:25.363Z,101059.94
2018-07-13T19:22:55.127Z,101059.34
2018-07-13T19:25:24.690Z,101067.45
2018-07-13T19:27:54.389Z,101059.97
2018-07-13T19:30:24.068Z,101072.57
2018-07-13T19:32:53.658Z,101076.34
2018-07-13T19:35:23.293Z,101074.25
2018-07-13T19:37:52.936Z,101069.86
2018-07-13T19:40:22.558Z,101073.22
2018-07-13T19:42:52.297Z,101076.16
2018-07-13T19:45:21.894Z,101081.34
2018-07-13T19:47:51.515Z,101089.55
2018-07-13T19:50:21.151Z,101087.58
2018-07-13T19:52:50.784Z,101089.95
2018-07-13T19:55:20.394Z,101091.17
2018-07-13T19:57:50.050Z,101094.45
2018-07-13T20:00:19.639Z,101094.41
2018-07-13T20:02:49.260Z,101100.57
2018-07-13T20:05:18.908Z,101098.61
2018-07-13T20:07:48.541Z,101097.09
2018-07-13T20:10:18.257Z,101101.12
2018-07-13T20:12:47.866Z,101103.00
2018-07-13T20:15:17.530Z,101113.20
2018-07-13T20:17:47.154Z,101110.36
2018-07-13T20:20:16.828Z,101110.78
2018-07-13T20:22:46.439Z,101117.13
2018-07-13T20:25:17.007Z,101120.55
2018-07-13T20:27:46.610Z,101117.47
2018-07-13T20:30:16.286Z,101117.57
2018-07-13T20:32:45.878Z,101123.28
2018-07-13T20:35:15.538Z,101126.59
2018-07-13T20:37:45.199Z,101131.66
2018-07-13T20:40:14.838Z,101124.48
2018-07-13T20:42:45.474Z,101129.03
2018-07-13T20:45:15.433Z,101131.41
2018-07-13T20:47:45.084Z,101130.70
2018-07-13T20:50:14.633Z,101130.55
2018-07-13T20:52:44.223Z,101132.23
2018-07-13T20:55:13.881Z,101128.31
2018-07-13T20:57:43.470Z,101123.06
2018-07-13T21:00:17.968Z,101128.66
2018-07-13T21:02:47.751Z,101135.61
2018-07-13T21:05:17.367Z,101130.36
2018-07-13T21:07:46.996Z,101136.88
2018-07-13T21:10:16.685Z,101136.58
2018-07-13T21:12:46.350Z,101138.77
2018-07-13T21:15:15.986Z,101141.69
2018-07-13T21:17:45.602Z,101139.67
2018-07-13T21:20:15.366Z,101139.33
2018-07-13T21:22:44.942Z,101145.34
2018-07-13T21:25:14.557Z,101146.33
2018-07-13T21:27:44.246Z,101144.29
2018-07-13T21:30:13.898Z,101156.55
2018-07-13T21:32:44.705Z,101156.60
2018-07-13T21:35:14.351Z,101153.25
2018-07-13T21:37:44.023Z,101151.62
2018-07-13T21:40:13.794Z,101148.13
2018-07-13T21:42:43.447Z,101144.40
2018-07-13T21:45:13.073Z,101146.78
2018-07-13T21:47:43.090Z,101145.82
2018-07-13T21:50:12.734Z,101154.45
2018-07-13T21:52:42.406Z,101152.42
2018-07-13T21:55:12.058Z,101155.39
2018-07-13T21:57:41.699Z,101152.42
2018-07-13T22:00:11.349Z,101160.70
2018-07-13T22:02:40.966Z,101155.98
2018-07-13T22:05:10.646Z,101155.81
2018-07-13T22:07:40.361Z,101160.30
2018-07-13T22:10:10.034Z,101162.75
2018-07-13T22:12:39.711Z,101162.13
2018-07-13T22:15:09.383Z,101156.66
2018-07-13T22:17:39.070Z,101156.14
2018-07-13T22:20:08.726Z,101167.16
2018-07-13T22:22:38.371Z,101165.52
2018-07-13T22:25:08.023Z,101175.41
2018-07-13T22:27:37.683Z,101182.35
2018-07-13T22:30:07.661Z,101183.71
2018-07-13T22:32:37.444Z,101177.49
2018-07-13T22:35:07.161Z,101169.01
2018-07-13T22:37:36.812Z,101176.17
2018-07-13T22:40:06.467Z,101179.28
2018-07-13T22:42:36.132Z,101181.23
2018-07-13T22:45:06.470Z,101181.06
2018-07-13T22:47:36.090Z,101179.52
2018-07-13T22:50:05.729Z,101190.95
2018-07-13T22:52:35.354Z,101198.52
2018-07-13T22:55:05.271Z,101196.13
2018-07-13T22:57:34.905Z,101199.20
2018-07-13T23:00:04.626Z,101198.35
2018-07-13T23:02:34.311Z,101200.75
2018-07-13T23:05:03.939Z,101208.41
2018-07-13T23:07:33.610Z,101207.30
2018-07-13T23:10:03.432Z,101202.13
2018-07-13T23:12:33.135Z,101199.58
2018-07-13T23:15:02.737Z,101198.95
2018-07-13T23:17:32.375Z,101193.36
2018-07-13T23:20:02.057Z,101196.97
2018-07-13T23:22:31.702Z,101195.17
2018-07-13T23:25:01.350Z,101196.20
2018-07-13T23:27:31.005Z,101192.33
2018-07-13T23:30:00.609Z,101195.80
2018-07-13T23:32:30.262Z,101197.37
2018-07-13T23:34:59.904Z,101198.14
2018-07-13T23:37:29.541Z,101196.21
2018-07-13T23:39:59.193Z,101194.42
2018-07-13T23:42:28.868Z,101192.71
2018-07-13T23:44:58.513Z,101191.52
2018-07-13T23:47:28.134Z,101192.39
2018-07-13T23:49:57.754Z,101189.94
2018-07-13T23:52:27.389Z,101187.16
2018-07-13T23:54:57.045Z,101190.91
2018-07-13T23:57:26.645Z,101187.85
2018-07-13T23:59:56.337Z,101186.78
